createdAt,value
2023-05-06T00:00:01.140Z,9.8
2023-05-06T00:01:01.667Z,9.8
2023-05-06T00:02:01.253Z,9.7
2023-05-06T00:03:01.917Z,9.7
2023-05-06T00:04:01.685Z,9.7
2023-05-06T00:05:01.056Z,9.7
2023-05-06T00:06:01.661Z,9.7
2023-05-06T00:07:01.246Z,9.7
2023-05-06T00:08:01.848Z,9.7
2023-05-06T00:09:01.437Z,9.7
2023-05-06T00:10:01.082Z,9.7
2023-05-06T00:11:01.598Z,9.7
2023-05-06T00:12:01.188Z,9.7
2023-05-06T00:13:01.873Z,9.7
2023-05-06T00:14:01.457Z,9.7
2023-05-06T00:15:01.053Z,9.7
2023-05-06T00:16:01.624Z,9.7
2023-05-06T00:17:01.251Z,9.6
2023-05-06T00:18:01.829Z,9.6
2023-05-06T00:19:01.456Z,9.6
2023-05-06T00:20:01.139Z,9.6
2023-05-06T00:21:01.590Z,9.7
2023-05-06T00:22:01.211Z,9.6
2023-05-06T00:23:01.778Z,9.7
2023-05-06T00:24:01.380Z,9.7
2023-05-06T00:25:01.101Z,9.6
2023-05-06T00:26:01.530Z,9.6
2023-05-06T00:27:01.129Z,9.6
2023-05-06T00:28:01.713Z,9.6
2023-05-06T00:29:01.312Z,9.6
2023-05-06T00:30:01.920Z,9.6
2023-05-06T00:31:01.588Z,9.6
2023-05-06T00:32:01.154Z,9.6
2023-05-06T00:33:01.761Z,9.6
2023-05-06T00:34:01.341Z,9.7
2023-05-06T00:35:01.945Z,9.6
2023-05-06T00:36:01.532Z,9.6
2023-05-06T00:37:01.127Z,9.6
2023-05-06T00:38:01.737Z,9.6
2023-05-06T00:39:01.335Z,9.7
2023-05-06T00:40:01.936Z,9.6
2023-05-06T00:41:01.533Z,9.6
2023-05-06T00:42:01.125Z,9.6
2023-05-06T00:43:01.717Z,9.7
2023-05-06T00:44:01.328Z,9.7
2023-05-06T00:45:01.914Z,9.6
2023-05-06T00:46:01.565Z,9.7
2023-05-06T00:47:01.177Z,9.7
2023-05-06T00:48:01.808Z,9.7
2023-05-06T00:49:01.337Z,9.6
2023-05-06T00:50:01.921Z,9.7
2023-05-06T00:51:01.539Z,9.7
2023-05-06T00:52:01.135Z,9.6
2023-05-06T00:53:01.702Z,9.7
2023-05-06T00:54:01.317Z,9.6
2023-05-06T00:55:01.885Z,9.6
2023-05-06T00:56:01.513Z,9.6
2023-05-06T00:57:01.102Z,9.6
2023-05-06T00:58:01.675Z,9.6
2023-05-06T00:59:01.274Z,9.6
2023-05-06T01:00:01.858Z,9.6
2023-05-06T01:01:01.500Z,9.6
2023-05-06T01:02:01.058Z,9.7
2023-05-06T01:03:01.743Z,9.7
2023-05-06T01:04:01.286Z,9.6
2023-05-06T01:05:01.870Z,9.7
2023-05-06T01:06:01.471Z,9.7
2023-05-06T01:07:01.092Z,9.6
2023-05-06T01:08:01.638Z,9.6
2023-05-06T01:09:01.222Z,9.7
2023-05-06T01:10:01.960Z,9.6
2023-05-06T01:11:01.445Z,9.7
2023-05-06T01:12:01.090Z,9.7
2023-05-06T01:13:01.651Z,9.6
2023-05-06T01:14:01.249Z,9.6
2023-05-06T01:15:01.837Z,9.6
2023-05-06T01:16:01.435Z,9.5
2023-05-06T01:17:01.153Z,9.5
2023-05-06T01:18:01.665Z,9.5
2023-05-06T01:19:01.254Z,9.5
2023-05-06T01:20:01.934Z,9.4
2023-05-06T01:21:01.486Z,9.4
2023-05-06T01:22:01.144Z,9.4
2023-05-06T01:23:01.671Z,9.4
2023-05-06T01:24:01.306Z,9.4
2023-05-06T01:25:01.850Z,9.5
2023-05-06T01:26:01.551Z,9.4
2023-05-06T01:27:01.218Z,9.4
2023-05-06T01:28:01.642Z,9.4
2023-05-06T01:29:01.260Z,9.3
2023-05-06T01:30:01.834Z,9.4
2023-05-06T01:31:01.457Z,9.4
2023-05-06T01:32:01.167Z,9.4
2023-05-06T01:33:01.596Z,9.4
2023-05-06T01:34:01.236Z,9.3
2023-05-06T01:35:01.827Z,9.3
2023-05-06T01:36:01.415Z,9.3
2023-05-06T01:37:01.171Z,9.3
2023-05-06T01:38:01.588Z,9.4
2023-05-06T01:39:01.182Z,9.4
2023-05-06T01:40:01.803Z,9.4
2023-05-06T01:41:01.401Z,9.4
2023-05-06T01:42:01.213Z,9.5
2023-05-06T01:43:01.575Z,9.5
2023-05-06T01:44:01.190Z,9.5
2023-05-06T01:45:01.789Z,9.4
2023-05-06T01:46:01.388Z,9.4
2023-05-06T01:47:01.983Z,9.5
2023-05-06T01:48:01.587Z,9.5
2023-05-06T01:49:01.256Z,9.5
2023-05-06T01:50:01.764Z,9.5
2023-05-06T01:51:01.363Z,9.6
2023-05-06T01:52:01.975Z,9.5
2023-05-06T01:53:01.577Z,9.6
2023-05-06T01:54:01.245Z,9.6
2023-05-06T01:55:01.759Z,9.6
2023-05-06T01:56:01.366Z,9.6
2023-05-06T01:57:01.966Z,9.6
2023-05-06T01:58:01.758Z,9.6
2023-05-06T01:59:01.229Z,9.6
2023-05-06T02:00:01.754Z,9.5
2023-05-06T02:01:01.356Z,9.5
2023-05-06T02:02:02.031Z,9.4
2023-05-06T02:03:01.965Z,9.4
2023-05-06T02:04:01.506Z,9.4
2023-05-06T02:05:01.759Z,9.4
2023-05-06T02:06:01.362Z,9.3
2023-05-06T02:07:01.935Z,9.3
2023-05-06T02:08:01.550Z,9.3
2023-05-06T02:09:01.193Z,9.3
2023-05-06T02:10:01.732Z,9.3
2023-05-06T02:11:01.321Z,9.2
2023-05-06T02:12:01.890Z,9.2
2023-05-06T02:13:01.550Z,9.3
2023-05-06T02:14:01.351Z,9.3
2023-05-06T02:15:01.682Z,9.3
2023-05-06T02:16:01.304Z,9.3
2023-05-06T02:17:01.842Z,9.3
2023-05-06T02:18:01.478Z,9.2
2023-05-06T02:19:01.279Z,9.2
2023-05-06T02:20:01.587Z,9.2
2023-05-06T02:21:01.246Z,9.1
2023-05-06T02:22:01.758Z,9
2023-05-06T02:23:01.354Z,9
2023-05-06T02:24:01.974Z,9.1
2023-05-06T02:25:01.573Z,9.1
2023-05-06T02:26:01.214Z,9.1
2023-05-06T02:27:01.756Z,9
2023-05-06T02:28:01.628Z,9
2023-05-06T02:29:01.949Z,8.9
2023-05-06T02:30:01.645Z,8.8
2023-05-06T02:31:01.280Z,8.8
2023-05-06T02:32:01.767Z,8.8
2023-05-06T02:33:01.464Z,8.8
2023-05-06T02:34:01.240Z,8.8
2023-05-06T02:35:01.557Z,8.8
2023-05-06T02:36:01.296Z,8.9
2023-05-06T02:37:01.738Z,8.9
2023-05-06T02:38:01.353Z,8.8
2023-05-06T02:39:01.927Z,8.9
2023-05-06T02:40:01.542Z,8.8
2023-05-06T02:41:01.263Z,8.8
2023-05-06T02:42:01.713Z,8.8
2023-05-06T02:43:01.405Z,8.8
2023-05-06T02:44:01.878Z,8.8
2023-05-06T02:45:01.523Z,8.7
2023-05-06T02:46:01.349Z,8.8
2023-05-06T02:47:01.609Z,8.9
2023-05-06T02:48:01.256Z,8.9
2023-05-06T02:49:01.790Z,8.9
2023-05-06T02:50:01.409Z,9
2023-05-06T02:51:00.973Z,9.1
2023-05-06T02:52:01.561Z,9.1
2023-05-06T02:53:01.364Z,9.1
2023-05-06T02:54:01.780Z,9.1
2023-05-06T02:55:01.396Z,9.1
2023-05-06T02:56:00.965Z,9
2023-05-06T02:57:01.573Z,8.9
2023-05-06T02:58:01.188Z,8.9
2023-05-06T02:59:01.773Z,8.9
2023-05-06T03:00:01.373Z,8.9
2023-05-06T03:01:00.961Z,8.9
2023-05-06T03:02:01.568Z,9
2023-05-06T03:03:01.371Z,8.9
2023-05-06T03:04:01.767Z,9
2023-05-06T03:05:01.433Z,8.9
2023-05-06T03:06:00.986Z,8.9
2023-05-06T03:07:01.549Z,8.9
2023-05-06T03:08:01.268Z,8.9
2023-05-06T03:09:01.754Z,8.8
2023-05-06T03:10:01.377Z,8.9
2023-05-06T03:11:01.932Z,8.9
2023-05-06T03:12:01.529Z,8.9
2023-05-06T03:13:01.314Z,8.9
2023-05-06T03:14:01.703Z,8.8
2023-05-06T03:15:01.314Z,8.8
2023-05-06T03:16:01.913Z,8.8
2023-05-06T03:17:01.515Z,8.9
2023-05-06T03:18:01.361Z,8.9
2023-05-06T03:19:01.689Z,8.9
2023-05-06T03:20:01.318Z,8.9
2023-05-06T03:21:01.888Z,8.8
2023-05-06T03:22:01.482Z,8.8
2023-05-06T03:23:01.334Z,8.8
2023-05-06T03:24:01.625Z,8.8
2023-05-06T03:25:01.310Z,8.8
2023-05-06T03:26:01.827Z,8.8
2023-05-06T03:27:01.422Z,8.8
2023-05-06T03:28:00.988Z,8.8
2023-05-06T03:29:01.579Z,8.7
2023-05-06T03:30:01.173Z,8.7
2023-05-06T03:31:01.788Z,8.7
2023-05-06T03:32:01.454Z,8.7
2023-05-06T03:33:01.056Z,8.7
2023-05-06T03:34:01.704Z,8.7
2023-05-06T03:35:01.299Z,8.7
2023-05-06T03:36:01.791Z,8.7
2023-05-06T03:37:01.401Z,8.6
2023-05-06T03:38:01.955Z,8.4
2023-05-06T03:39:01.578Z,8.3
2023-05-06T03:40:01.319Z,8.4
2023-05-06T03:41:01.763Z,8.4
2023-05-06T03:42:01.371Z,8.4
2023-05-06T03:43:01.958Z,8.4
2023-05-06T03:44:01.550Z,8.5
2023-05-06T03:45:01.257Z,8.5
2023-05-06T03:46:01.745Z,8.5
2023-05-06T03:47:01.453Z,8.6
2023-05-06T03:48:01.973Z,8.5
2023-05-06T03:49:01.599Z,8.5
2023-05-06T03:50:01.602Z,8.5
2023-05-06T03:51:01.786Z,8.5
2023-05-06T03:52:01.429Z,8.4
2023-05-06T03:53:00.999Z,8.4
2023-05-06T03:54:01.545Z,8.3
2023-05-06T03:55:01.339Z,8.3
2023-05-06T03:56:01.750Z,8.3
2023-05-06T03:57:01.375Z,8.3
2023-05-06T03:58:01.989Z,8.4
2023-05-06T03:59:01.592Z,8.4
2023-05-06T04:00:01.387Z,8.3
2023-05-06T04:01:01.777Z,8.3
2023-05-06T04:02:01.586Z,8.4
2023-05-06T04:03:01.969Z,8.4
2023-05-06T04:04:01.710Z,8.4
2023-05-06T04:05:01.206Z,8.4
2023-05-06T04:06:01.807Z,8.3
2023-05-06T04:07:01.567Z,8.3
2023-05-06T04:08:01.010Z,8.4
2023-05-06T04:09:01.629Z,8.4
2023-05-06T04:10:01.230Z,8.5
2023-05-06T04:11:01.804Z,8.6
2023-05-06T04:12:01.413Z,8.7
2023-05-06T04:13:01.008Z,8.8
2023-05-06T04:14:01.594Z,8.7
2023-05-06T04:15:01.181Z,8.8
2023-05-06T04:16:01.950Z,8.8
2023-05-06T04:17:01.418Z,8.9
2023-05-06T04:18:01.021Z,8.9
2023-05-06T04:19:01.985Z,9
2023-05-06T04:20:01.159Z,9
2023-05-06T04:21:01.939Z,9
2023-05-06T04:22:01.613Z,9
2023-05-06T04:23:01.004Z,9.1
2023-05-06T04:24:01.611Z,9.1
2023-05-06T04:25:01.265Z,9.1
2023-05-06T04:26:01.812Z,9.2
2023-05-06T04:27:01.405Z,9.1
2023-05-06T04:28:00.996Z,9.2
2023-05-06T04:29:01.567Z,9.3
2023-05-06T04:30:01.152Z,9.3
2023-05-06T04:31:01.758Z,9.3
2023-05-06T04:32:01.415Z,9.4
2023-05-06T04:33:01.965Z,9.4
2023-05-06T04:34:01.631Z,9.3
2023-05-06T04:35:01.165Z,9.4
2023-05-06T04:36:01.773Z,9.5
2023-05-06T04:37:01.360Z,9.5
2023-05-06T04:38:02.046Z,9.6
2023-05-06T04:39:01.638Z,9.6
2023-05-06T04:40:01.193Z,9.6
2023-05-06T04:41:01.811Z,9.7
2023-05-06T04:42:01.412Z,9.6
2023-05-06T04:43:00.993Z,9.5
2023-05-06T04:44:01.571Z,9.4
2023-05-06T04:45:01.179Z,9.5
2023-05-06T04:46:01.812Z,9.6
2023-05-06T04:47:01.420Z,9.8
2023-05-06T04:48:01.013Z,9.8
2023-05-06T04:49:01.586Z,9.9
2023-05-06T04:50:01.193Z,9.8
2023-05-06T04:51:01.787Z,9.9
2023-05-06T04:52:01.391Z,9.9
2023-05-06T04:53:01.953Z,10
2023-05-06T04:54:01.664Z,10.1
2023-05-06T04:55:01.205Z,10.3
2023-05-06T04:56:01.822Z,10.4
2023-05-06T04:57:01.419Z,10.5
2023-05-06T04:58:01.001Z,10.7
2023-05-06T04:59:01.585Z,10.7
2023-05-06T05:00:01.226Z,10.7
2023-05-06T05:01:01.825Z,10.7
2023-05-06T05:02:01.444Z,10.8
2023-05-06T05:03:01.058Z,10.7
2023-05-06T05:04:01.572Z,10.8
2023-05-06T05:05:01.180Z,10.8
2023-05-06T05:06:01.767Z,10.8
2023-05-06T05:07:01.358Z,10.9
2023-05-06T05:08:01.967Z,10.8
2023-05-06T05:09:01.558Z,10.9
2023-05-06T05:10:01.248Z,10.9
2023-05-06T05:11:01.738Z,10.8
2023-05-06T05:12:01.378Z,10.8
2023-05-06T05:13:01.981Z,10.8
2023-05-06T05:14:02.232Z,10.9
2023-05-06T05:15:01.034Z,11
2023-05-06T05:16:01.625Z,11
2023-05-06T05:17:01.333Z,10.9
2023-05-06T05:18:01.908Z,10.9
2023-05-06T05:19:03.416Z,11
2023-05-06T05:20:01.068Z,11
2023-05-06T05:21:01.639Z,11
2023-05-06T05:22:01.228Z,11.1
2023-05-06T05:23:01.821Z,11.2
2023-05-06T05:24:01.409Z,11.3
2023-05-06T05:25:01.019Z,11.4
2023-05-06T05:26:01.708Z,11.4
2023-05-06T05:27:01.249Z,11.5
2023-05-06T05:28:01.828Z,11.5
2023-05-06T05:29:01.438Z,11.5
2023-05-06T05:30:00.988Z,11.5
2023-05-06T05:31:01.571Z,11.6
2023-05-06T05:32:01.186Z,11.7
2023-05-06T05:33:01.856Z,11.6
2023-05-06T05:34:01.501Z,11.7
2023-05-06T05:35:01.046Z,11.6
2023-05-06T05:36:01.602Z,11.7
2023-05-06T05:37:01.197Z,11.7
2023-05-06T05:38:02.163Z,11.8
2023-05-06T05:39:01.422Z,11.8
2023-05-06T05:40:01.044Z,11.7
2023-05-06T05:41:01.619Z,11.7
2023-05-06T05:42:01.328Z,11.9
2023-05-06T05:43:01.820Z,11.8
2023-05-06T05:44:01.431Z,11.8
2023-05-06T05:45:01.006Z,11.8
2023-05-06T05:46:01.633Z,11.8
2023-05-06T05:47:01.241Z,11.8
2023-05-06T05:48:01.839Z,11.8
2023-05-06T05:49:01.461Z,11.9
2023-05-06T05:50:01.050Z,12
2023-05-06T05:51:01.643Z,12.2
2023-05-06T05:52:01.262Z,12.2
2023-05-06T05:53:01.841Z,12.3
2023-05-06T05:54:01.430Z,12.3
2023-05-06T05:55:01.011Z,12.3
2023-05-06T05:56:01.598Z,12.3
2023-05-06T05:57:01.214Z,12.1
2023-05-06T05:58:01.877Z,12.2
2023-05-06T05:59:01.440Z,12.2
2023-05-06T06:00:01.023Z,12.2
2023-05-06T06:01:01.603Z,12.2
2023-05-06T06:02:01.220Z,12.3
2023-05-06T06:03:01.843Z,12.3
2023-05-06T06:04:01.610Z,12.3
2023-05-06T06:05:01.043Z,12.4
2023-05-06T06:06:01.600Z,12.5
2023-05-06T06:07:01.214Z,12.5
2023-05-06T06:08:03.722Z,12.5
2023-05-06T06:09:01.319Z,12.5
2023-05-06T06:10:01.907Z,12.6
2023-05-06T06:11:01.502Z,12.7
2023-05-06T06:12:01.125Z,12.8
2023-05-06T06:13:01.708Z,12.7
2023-05-06T06:14:01.491Z,12.8
2023-05-06T06:15:01.918Z,12.9
2023-05-06T06:16:01.548Z,12.9
2023-05-06T06:17:01.218Z,13
2023-05-06T06:18:01.813Z,13.1
2023-05-06T06:19:01.406Z,13.2
2023-05-06T06:20:01.055Z,13.3
2023-05-06T06:21:01.579Z,13.3
2023-05-06T06:22:01.200Z,13.3
2023-05-06T06:23:01.791Z,13.3
2023-05-06T06:24:01.376Z,13.3
2023-05-06T06:25:01.966Z,13.3
2023-05-06T06:26:01.560Z,13.4
2023-05-06T06:27:01.151Z,13.4
2023-05-06T06:28:01.767Z,13.5
2023-05-06T06:29:01.357Z,13.5
2023-05-06T06:30:01.978Z,13.5
2023-05-06T06:31:01.590Z,13.6
2023-05-06T06:32:01.193Z,13.8
2023-05-06T06:33:01.832Z,13.9
2023-05-06T06:34:01.414Z,13.9
2023-05-06T06:35:01.070Z,14
2023-05-06T06:36:01.588Z,13.9
2023-05-06T06:37:01.191Z,14
2023-05-06T06:38:01.770Z,14
2023-05-06T06:39:01.384Z,14.1
2023-05-06T06:40:01.945Z,14
2023-05-06T06:41:01.533Z,14.1
2023-05-06T06:42:01.117Z,14.1
2023-05-06T06:43:01.716Z,14.1
2023-05-06T06:44:01.327Z,14.1
2023-05-06T06:45:01.882Z,14.2
2023-05-06T06:46:01.692Z,14.3
2023-05-06T06:47:01.049Z,14.3
2023-05-06T06:48:01.666Z,14.3
2023-05-06T06:49:01.292Z,14.4
2023-05-06T06:50:01.881Z,14.4
2023-05-06T06:51:01.494Z,14.3
2023-05-06T06:52:01.081Z,14.4
2023-05-06T06:54:01.265Z,14.6
2023-05-06T06:55:01.852Z,14.6
2023-05-06T06:56:01.474Z,14.6
2023-05-06T06:57:01.032Z,14.6
2023-05-06T06:58:01.602Z,14.5
2023-05-06T06:59:01.200Z,14.6
2023-05-06T07:00:01.798Z,14.6
2023-05-06T07:01:01.488Z,14.6
2023-05-06T07:02:01.147Z,14.8
2023-05-06T07:03:01.586Z,14.8
2023-05-06T07:04:01.213Z,14.8
2023-05-06T07:05:01.786Z,14.9
2023-05-06T07:06:01.411Z,14.9
2023-05-06T07:07:01.960Z,14.9
2023-05-06T07:08:01.555Z,14.9
2023-05-06T07:09:01.147Z,14.9
2023-05-06T07:10:01.728Z,15
2023-05-06T07:11:01.355Z,15
2023-05-06T07:12:01.916Z,15
2023-05-06T07:13:01.561Z,14.9
2023-05-06T07:14:01.095Z,14.9
2023-05-06T07:15:01.686Z,15
2023-05-06T07:16:01.309Z,14.9
2023-05-06T07:17:01.875Z,14.9
2023-05-06T07:18:01.621Z,15
2023-05-06T07:19:01.090Z,15.1
2023-05-06T07:20:01.693Z,15.2
2023-05-06T07:21:01.306Z,15.2
2023-05-06T07:22:01.900Z,15.2
2023-05-06T07:23:01.513Z,15.2
2023-05-06T07:24:01.090Z,15.1
2023-05-06T07:25:01.669Z,15.2
2023-05-06T07:26:01.269Z,15.3
2023-05-06T07:27:01.856Z,15.3
2023-05-06T07:28:01.463Z,15.3
2023-05-06T07:29:01.028Z,15.3
2023-05-06T07:30:01.628Z,15.3
2023-05-06T07:31:01.267Z,15.3
2023-05-06T07:32:01.836Z,15.5
2023-05-06T07:33:01.559Z,15.5
2023-05-06T07:34:01.048Z,15.3
2023-05-06T07:35:01.605Z,15.2
2023-05-06T07:36:01.252Z,15.2
2023-05-06T07:37:01.800Z,15.1
2023-05-06T07:38:01.390Z,15
2023-05-06T07:39:02.010Z,14.9
2023-05-06T07:40:01.600Z,15.1
2023-05-06T07:41:01.193Z,15
2023-05-06T07:42:01.795Z,15.1
2023-05-06T07:43:01.405Z,15.1
2023-05-06T07:44:02.000Z,15.1
2023-05-06T07:45:01.604Z,15.3
2023-05-06T07:46:01.235Z,15.5
2023-05-06T07:47:01.815Z,15.6
2023-05-06T07:48:01.463Z,15.5
2023-05-06T07:49:01.037Z,15.5
2023-05-06T07:50:01.836Z,15.5
2023-05-06T07:51:01.307Z,15.6
2023-05-06T07:52:01.852Z,15.5
2023-05-06T07:53:01.440Z,15.6
2023-05-06T07:54:01.026Z,15.6
2023-05-06T07:55:01.598Z,15.6
2023-05-06T07:56:01.213Z,15.6
2023-05-06T07:57:01.784Z,15.7
2023-05-06T07:58:01.374Z,15.6
2023-05-06T07:59:01.963Z,15.5
2023-05-06T08:00:01.550Z,15.6
2023-05-06T08:01:01.197Z,15.6
2023-05-06T08:02:01.787Z,15.8
2023-05-06T08:03:01.443Z,15.9
2023-05-06T08:04:02.034Z,16
2023-05-06T08:05:01.699Z,16.1
2023-05-06T08:06:01.248Z,15.9
2023-05-06T08:07:01.792Z,15.9
2023-05-06T08:08:01.389Z,16
2023-05-06T08:09:01.979Z,16.1
2023-05-06T08:10:01.573Z,16.2
2023-05-06T08:11:01.210Z,16.3
2023-05-06T08:12:01.752Z,16.4
2023-05-06T08:13:01.372Z,16.6
2023-05-06T08:14:01.943Z,16.5
2023-05-06T08:15:01.537Z,16.4
2023-05-06T08:16:01.169Z,16.4
2023-05-06T08:17:01.720Z,16.3
2023-05-06T08:18:10.294Z,16.3
2023-05-06T08:19:01.853Z,16.3
2023-05-06T08:20:01.445Z,16.4
2023-05-06T08:21:01.032Z,16.3
2023-05-06T08:22:01.695Z,16.3
2023-05-06T08:23:01.233Z,16
2023-05-06T08:24:01.819Z,16.1
2023-05-06T08:25:01.411Z,16.3
2023-05-06T08:26:02.025Z,16.3
2023-05-06T08:27:01.618Z,16.4
2023-05-06T08:28:01.231Z,16.5
2023-05-06T08:29:01.820Z,16.6
2023-05-06T08:30:01.420Z,16.8
2023-05-06T08:31:02.016Z,16.7
2023-05-06T08:32:01.697Z,16.7
2023-05-06T08:33:01.252Z,16.7
2023-05-06T08:34:01.835Z,16.7
2023-05-06T08:35:01.431Z,16.7
2023-05-06T08:36:01.098Z,16.8
2023-05-06T08:37:01.602Z,16.8
2023-05-06T08:38:01.288Z,17
2023-05-06T08:39:01.854Z,17.3
2023-05-06T08:40:01.467Z,17.3
2023-05-06T08:41:01.048Z,17.1
2023-05-06T08:42:01.622Z,17
2023-05-06T08:43:01.241Z,16.9
2023-05-06T08:44:01.797Z,17
2023-05-06T08:45:01.397Z,17
2023-05-06T08:46:01.974Z,17.1
2023-05-06T08:47:01.570Z,17.1
2023-05-06T08:48:01.200Z,17.2
2023-05-06T08:49:01.744Z,17.1
2023-05-06T08:50:01.339Z,17.1
2023-05-06T08:51:01.923Z,17.2
2023-05-06T08:52:01.514Z,17.2
2023-05-06T08:53:01.124Z,17.1
2023-05-06T08:54:01.822Z,16.9
2023-05-06T08:55:01.623Z,17.1
2023-05-06T08:56:01.906Z,17.4
2023-05-06T08:57:01.495Z,17.7
2023-05-06T08:58:01.106Z,17.9
2023-05-06T08:59:01.725Z,17.8
2023-05-06T09:00:01.325Z,17.7
2023-05-06T09:01:01.918Z,17.8
2023-05-06T09:02:01.568Z,17.8
2023-05-06T09:03:01.179Z,17.8
2023-05-06T09:04:01.697Z,17.8
2023-05-06T09:05:01.285Z,18
2023-05-06T09:06:01.877Z,18.2
2023-05-06T09:07:01.467Z,18.4
2023-05-06T09:08:01.050Z,18.5
2023-05-06T09:09:01.652Z,18.5
2023-05-06T09:10:01.342Z,18.2
2023-05-06T09:11:01.826Z,18.1
2023-05-06T09:12:01.421Z,17.9
2023-05-06T09:13:02.003Z,18.3
2023-05-06T09:14:01.635Z,18.5
2023-05-06T09:15:01.225Z,18.9
2023-05-06T09:16:01.817Z,19
2023-05-06T09:17:01.450Z,19.1
2023-05-06T09:18:02.049Z,19.2
2023-05-06T09:19:01.704Z,19.2
2023-05-06T09:20:01.259Z,19.3
2023-05-06T09:21:01.825Z,19.1
2023-05-06T09:22:01.414Z,19.3
2023-05-06T09:23:02.009Z,19.3
2023-05-06T09:24:01.599Z,19.6
2023-05-06T09:25:01.214Z,19.4
2023-05-06T09:26:01.917Z,19.5
2023-05-06T09:27:01.440Z,19.6
2023-05-06T09:28:02.020Z,19.7
2023-05-06T09:29:01.621Z,19.8
2023-05-06T09:30:01.273Z,20.1
2023-05-06T09:31:01.849Z,20.1
2023-05-06T09:32:01.455Z,20
2023-05-06T09:33:01.071Z,20.2
2023-05-06T09:34:01.611Z,20.2
2023-05-06T09:35:01.226Z,20.3
2023-05-06T09:36:01.786Z,20
2023-05-06T09:37:01.440Z,19.7
2023-05-06T09:38:01.965Z,19.8
2023-05-06T09:39:01.557Z,19.9
2023-05-06T09:40:01.238Z,20
2023-05-06T09:41:01.747Z,20.1
2023-05-06T09:42:01.432Z,20.3
2023-05-06T09:43:01.924Z,20.3
2023-05-06T09:44:01.552Z,20.3
2023-05-06T09:45:02.094Z,20.3
2023-05-06T09:46:02.013Z,20.3
2023-05-06T09:47:01.336Z,20.1
2023-05-06T09:48:01.942Z,20.1
2023-05-06T09:49:01.614Z,19.9
2023-05-06T09:50:01.137Z,19.7
2023-05-06T09:51:01.725Z,19.6
2023-05-06T09:52:01.311Z,19.7
2023-05-06T09:53:01.897Z,19.8
2023-05-06T09:54:01.509Z,19.8
2023-05-06T09:55:01.075Z,19.9
2023-05-06T09:56:01.661Z,20
2023-05-06T09:57:01.397Z,20.3
2023-05-06T09:58:02.024Z,20.5
2023-05-06T09:59:01.618Z,20.5
2023-05-06T10:00:01.079Z,20.3
2023-05-06T10:01:01.663Z,20.3
2023-05-06T10:02:01.268Z,20.5
2023-05-06T10:03:01.969Z,20.7
2023-05-06T10:04:01.632Z,20.5
2023-05-06T10:05:01.286Z,20.4
2023-05-06T10:06:01.689Z,20.4
2023-05-06T10:07:01.332Z,20.2
2023-05-06T10:08:01.875Z,20.1
2023-05-06T10:09:01.483Z,20.2
2023-05-06T10:10:01.054Z,20.3
2023-05-06T10:11:01.691Z,20.5
2023-05-06T10:12:01.317Z,20.5
2023-05-06T10:13:01.878Z,20.7
2023-05-06T10:14:01.525Z,20.8
2023-05-06T10:15:01.113Z,20.9
2023-05-06T10:16:02.073Z,21.2
2023-05-06T10:17:01.325Z,21.6
2023-05-06T10:18:02.195Z,21.3
2023-05-06T10:19:01.570Z,21.3
2023-05-06T10:20:01.178Z,21.2
2023-05-06T10:21:01.764Z,21.2
2023-05-06T10:22:01.599Z,21
2023-05-06T10:23:01.534Z,21.1
2023-05-06T10:24:01.163Z,21.1
2023-05-06T10:25:01.773Z,20.9
2023-05-06T10:26:01.382Z,20.6
2023-05-06T10:27:01.950Z,20.3
2023-05-06T10:28:01.536Z,20.3
2023-05-06T10:29:01.680Z,20.5
2023-05-06T10:30:01.365Z,20.7
2023-05-06T10:31:01.991Z,20.5
2023-05-06T10:32:01.618Z,20.5
2023-05-06T10:33:01.249Z,20.5
2023-05-06T10:34:01.782Z,20.2
2023-05-06T10:35:01.385Z,20.3
2023-05-06T10:36:01.990Z,20.2
2023-05-06T10:37:01.579Z,20.4
2023-05-06T10:38:01.220Z,20.2
2023-05-06T10:39:01.756Z,20.1
2023-05-06T10:40:01.348Z,20
2023-05-06T10:41:01.958Z,20.1
2023-05-06T10:42:01.547Z,20.3
2023-05-06T10:43:01.131Z,20.2
2023-05-06T10:44:01.715Z,20.3
2023-05-06T10:45:01.312Z,20.4
2023-05-06T10:46:02.051Z,20.4
2023-05-06T10:47:01.553Z,20.4
2023-05-06T10:48:01.163Z,20.3
2023-05-06T10:49:01.707Z,20.5
2023-05-06T10:50:01.287Z,20.7
2023-05-06T10:51:01.866Z,20.8
2023-05-06T10:52:01.452Z,21
2023-05-06T10:53:02.034Z,21.1
2023-05-06T10:54:01.651Z,21.3
2023-05-06T10:55:01.248Z,21.2
2023-05-06T10:56:01.842Z,21.3
2023-05-06T10:57:01.456Z,21.5
2023-05-06T10:58:02.036Z,21.7
2023-05-06T10:59:01.642Z,21.7
2023-05-06T11:00:01.257Z,21.5
2023-05-06T11:01:01.850Z,21.1
2023-05-06T11:02:01.727Z,20.8
2023-05-06T11:03:01.236Z,20.9
2023-05-06T11:04:01.654Z,20.8
2023-05-06T11:05:01.243Z,20.9
2023-05-06T11:06:01.829Z,20.9
2023-05-06T11:07:01.465Z,21
2023-05-06T11:08:02.018Z,21.1
2023-05-06T11:09:01.607Z,21.3
2023-05-06T11:10:01.253Z,21.5
2023-05-06T11:11:01.784Z,21.8
2023-05-06T11:12:01.385Z,21.9
2023-05-06T11:13:02.005Z,22
2023-05-06T11:14:01.620Z,22.1
2023-05-06T11:15:01.202Z,21.6
2023-05-06T11:16:01.794Z,21.5
2023-05-06T11:17:01.596Z,21.2
2023-05-06T11:18:02.147Z,21.5
2023-05-06T11:19:01.802Z,21.7
2023-05-06T11:20:01.227Z,21.8
2023-05-06T11:21:01.800Z,21.9
2023-05-06T11:22:01.416Z,22.1
2023-05-06T11:23:01.962Z,22.3
2023-05-06T11:24:01.547Z,22.4
2023-05-06T11:25:01.133Z,22.3
2023-05-06T11:26:01.725Z,22
2023-05-06T11:27:01.403Z,21.7
2023-05-06T11:28:01.905Z,21.8
2023-05-06T11:29:01.497Z,22
2023-05-06T11:30:01.086Z,22.2
2023-05-06T11:31:01.701Z,22.3
2023-05-06T11:32:01.330Z,22.7
2023-05-06T11:33:03.883Z,22.7
2023-05-06T11:34:01.449Z,22.6
2023-05-06T11:35:02.058Z,22.8
2023-05-06T11:36:01.667Z,22.8
2023-05-06T11:37:01.286Z,22.7
2023-05-06T11:38:02.004Z,22.7
2023-05-06T11:39:02.363Z,22.5
2023-05-06T11:40:01.090Z,22.2
2023-05-06T11:41:01.684Z,22
2023-05-06T11:42:01.330Z,21.4
2023-05-06T11:43:01.936Z,21.3
2023-05-06T11:44:01.529Z,21
2023-05-06T11:45:01.128Z,21.2
2023-05-06T11:46:01.709Z,21.4
2023-05-06T11:47:01.311Z,21.3
2023-05-06T11:48:01.958Z,21.5
2023-05-06T11:49:01.562Z,21.5
2023-05-06T11:50:01.261Z,21.6
2023-05-06T11:51:01.728Z,21.7
2023-05-06T11:52:01.339Z,21.6
2023-05-06T11:53:01.913Z,21.4
2023-05-06T11:54:01.519Z,21.5
2023-05-06T11:55:01.119Z,21.6
2023-05-06T11:56:01.699Z,21.8
2023-05-06T11:57:01.297Z,21.8
2023-05-06T11:58:01.884Z,21.7
2023-05-06T11:59:01.473Z,21.8
2023-05-06T12:00:02.079Z,21.7
2023-05-06T12:01:01.679Z,21.6
2023-05-06T12:02:01.275Z,21.6
2023-05-06T12:03:01.877Z,21.6
2023-05-06T12:04:01.601Z,21.7
2023-05-06T12:05:01.187Z,21.8
2023-05-06T12:06:01.793Z,22.2
2023-05-06T12:07:01.330Z,22.3
2023-05-06T12:08:02.205Z,22.2
2023-05-06T12:09:01.354Z,22.3
2023-05-06T12:10:01.974Z,22.3
2023-05-06T12:11:01.584Z,22.4
2023-05-06T12:12:01.187Z,22.3
2023-05-06T12:13:01.776Z,22.3
2023-05-06T12:14:01.399Z,21.9
2023-05-06T12:15:02.014Z,21.8
2023-05-06T12:16:01.691Z,21.9
2023-05-06T12:17:01.228Z,22
2023-05-06T12:18:01.917Z,22.4
2023-05-06T12:19:01.473Z,22.4
2023-05-06T12:20:02.082Z,22.3
2023-05-06T12:21:01.680Z,22.3
2023-05-06T12:22:01.304Z,22.3
2023-05-06T12:23:01.869Z,22.3
2023-05-06T12:24:01.503Z,22.3
2023-05-06T12:25:02.093Z,22.7
2023-05-06T12:26:01.693Z,22.7
2023-05-06T12:27:01.287Z,22.2
2023-05-06T12:28:01.902Z,22.3
2023-05-06T12:29:01.500Z,22.3
2023-05-06T12:30:01.088Z,22.7
2023-05-06T12:31:01.681Z,22.8
2023-05-06T12:32:01.305Z,23
2023-05-06T12:33:01.914Z,23
2023-05-06T12:34:01.530Z,23.1
2023-05-06T12:35:01.104Z,22.8
2023-05-06T12:36:01.698Z,22.7
2023-05-06T12:37:01.291Z,22.6
2023-05-06T12:38:02.012Z,22.3
2023-05-06T12:39:01.597Z,22.6
2023-05-06T12:40:01.161Z,22.7
2023-05-06T12:41:01.710Z,22.5
2023-05-06T12:42:01.309Z,22.6
2023-05-06T12:43:01.951Z,22.6
2023-05-06T12:44:01.540Z,22.4
2023-05-06T12:45:01.124Z,22.5
2023-05-06T12:46:01.779Z,22.4
2023-05-06T12:47:01.369Z,21.6
2023-05-06T12:48:01.990Z,21.2
2023-05-06T12:49:01.623Z,21.3
2023-05-06T12:50:01.264Z,21.8
2023-05-06T12:51:01.790Z,22.2
2023-05-06T12:52:01.387Z,22.6
2023-05-06T12:53:01.971Z,22.9
2023-05-06T12:54:01.590Z,23
2023-05-06T12:55:01.161Z,23
2023-05-06T12:56:01.750Z,22.9
2023-05-06T12:57:01.342Z,22.8
2023-05-06T12:58:01.923Z,22.8
2023-05-06T12:59:01.520Z,22.9
2023-05-06T13:00:01.101Z,22.9
2023-05-06T13:01:01.719Z,22.8
2023-05-06T13:02:01.378Z,22.8
2023-05-06T13:03:01.977Z,22.8
2023-05-06T13:04:01.620Z,22.8
2023-05-06T13:05:01.171Z,22.4
2023-05-06T13:06:01.787Z,22
2023-05-06T13:07:01.409Z,22.1
2023-05-06T13:08:01.966Z,22.2
2023-05-06T13:09:01.577Z,22.3
2023-05-06T13:10:01.288Z,22.6
2023-05-06T13:11:01.764Z,22.5
2023-05-06T13:12:01.363Z,22.5
2023-05-06T13:13:01.976Z,22.7
2023-05-06T13:14:01.587Z,22.4
2023-05-06T13:15:01.162Z,22.4
2023-05-06T13:16:01.766Z,22.4
2023-05-06T13:17:01.551Z,22.5
2023-05-06T13:18:01.993Z,22.6
2023-05-06T13:19:01.604Z,22.7
2023-05-06T13:20:01.907Z,22.9
2023-05-06T13:21:01.731Z,23
2023-05-06T13:22:01.534Z,23
2023-05-06T13:23:01.946Z,22.9
2023-05-06T13:24:01.682Z,22.5
2023-05-06T13:25:01.128Z,22.6
2023-05-06T13:26:04.971Z,22.7
2023-05-06T13:27:01.481Z,22.7
2023-05-06T13:28:01.969Z,22.6
2023-05-06T13:29:01.557Z,22.2
2023-05-06T13:30:01.163Z,22.2
2023-05-06T13:31:01.738Z,22
2023-05-06T13:32:01.358Z,22.1
2023-05-06T13:33:01.974Z,22.3